Flight Track Log - Related Links

Times and Time Zones

All times are in EDT time to prevent confusion due to time zone crossing. See the EJA894 flight status page for this flight to view local times or setup timezone preferences in your user account.

Time Position Orientation Groundspeed Altitude Reporting Facility
EDT Latitude Longitude Course Direction KTS MPH feet Rate Location/Type
Mon 09:54:16 AM 37.7333 -122.2500 302° West 186 214 1,200  Level Northern Cal TRACON
Mon 09:55:16 AM 37.7667 -122.3167 302° West 219 252 4,000 2,889 Climbing Northern Cal TRACON
Mon 09:56:04 AM 37.8072 -122.3372 338° Northwest 243 280 6,400 3,468 Climbing Oakland Center
Mon 09:57:05 AM 37.8478 -122.2608 56° Northeast 268 308 10,300 2,902 Climbing Oakland Center
Mon 09:58:06 AM 37.8653 -122.1517 78° East 313 360 12,300 2,115 Climbing Oakland Center
Mon 09:59:07 AM 37.8883 -122.0264 77° East 361 415 14,600 2,479 Climbing Oakland Center
Mon 10:00:07 AM 37.9119 -121.8956 77° East 381 438 17,300 2,678 Climbing Oakland Center
Mon 10:01:08 AM 37.9361 -121.7664 77° East 380 437 20,000 2,656 Climbing Oakland Center
Mon 10:02:09 AM 37.9594 -121.6356 77° East 382 440 22,700 2,557 Climbing Oakland Center
Mon 10:03:10 AM 37.9825 -121.5103 77° East 370 426 25,200 2,311 Climbing Oakland Center
Mon 10:04:11 AM 38.0092 -121.3669 77° East 374 430 27,400 1,820 Climbing Oakland Center
Mon 10:05:12 AM 38.0328 -121.2347 77° East 384 442 28,900 1,488 Climbing Oakland Center
Mon 10:06:12 AM 38.0569 -121.0978 77° East 397 457 30,400 1,488 Climbing Oakland Center
Mon 10:07:13 AM 38.0847 -120.9586 76° East 406 467 31,900 1,475 Climbing Oakland Center
Mon 10:08:14 AM 38.1178 -120.8222 73° East 406 467 33,400 1,230 Climbing Oakland Center
Mon 10:09:15 AM 38.1417 -120.6808 78° East 410 472 34,400 984 Climbing Oakland Center
Mon 10:10:16 AM 38.1678 -120.5372 77° East 419 482 35,400 984 Climbing Oakland Center
Mon 10:11:17 AM 38.1925 -120.3919 78° East 422 486 36,400 984 Climbing Oakland Center
Mon 10:12:18 AM 38.2186 -120.2458 77° East 425 489 37,400 1,033 Climbing Oakland Center
Mon 10:13:19 AM 38.2425 -120.1000 78° East 423 487 38,500 1,131 Climbing Oakland Center
Mon 10:14:20 AM 38.2714 -119.9264 78° East 421 484 39,700 1,033 Climbing Oakland Center
Mon 10:15:21 AM 38.2964 -119.7831 77° East 417 480 40,600 639 Climbing Oakland Center
Mon 10:16:22 AM 38.3183 -119.6389 79° East 416 479 41,000 197 Climbing Oakland Center
Mon 10:17:23 AM 38.3447 -119.4892 77° East 432 497 41,000  Level Oakland Center
Mon 10:18:24 AM 38.3661 -119.3511 79° East 444 511 41,000  Level Oakland Center
Mon 10:19:25 AM 38.3914 -119.1911 79° East 459 528 41,000  Level Oakland Center
Mon 10:20:26 AM 38.4228 -118.9958 78° East 471 542 41,000  Level Oakland Center
Mon 10:21:27 AM 38.4489 -118.8311 79° East 475 547 41,000  Level Oakland Center
Mon 10:22:28 AM 38.4744 -118.6653 79° East 478 550 41,000  Level Oakland Center
Mon 10:23:29 AM 38.5008 -118.5003 78° East 477 549 41,000  Level Oakland Center
Mon 10:24:30 AM 38.5258 -118.3347 79° East 477 549 41,000  Level Oakland Center
Mon 10:25:31 AM 38.5514 -118.1703 79° East 476 548 41,000  Level Oakland Center
Mon 10:26:32 AM 38.5764 -118.0008 79° East 478 550 41,000  Level Oakland Center
Mon 10:27:33 AM 38.6014 -117.8342 79° East 477 549 41,000  Level Oakland Center
Mon 10:28:34 AM 38.6258 -117.6669 79° East 475 547 41,000  Level Oakland Center
Mon 10:29:35 AM 38.6503 -117.4997 79° East 475 547 41,000  Level Oakland Center
Mon 10:30:36 AM 38.6742 -117.3322 80° East 476 548 41,000  Level Oakland Center
Mon 10:30:56 AM 38.6828 -117.2650 81° East 476 548 41,000  Level Salt Lake Center
Mon 10:31:57 AM 38.7086 -117.0972 79° East 476 548 41,000  Level Salt Lake Center
Mon 10:32:39 AM 38.7242 -116.9958 79° East 478 550 41,000  Level Oakland Center
Mon 10:33:40 AM 38.7486 -116.8283 79° East 477 549 41,000  Level Oakland Center
Mon 10:34:00 AM 38.7592 -116.7608 79° East 478 550 41,000  Level Salt Lake Center
Mon 10:35:01 AM 38.7828 -116.5928 80° East 477 549 41,000  Level Salt Lake Center
Mon 10:35:42 AM 38.8022 -116.4581 79° East 479 551 41,000  Level Oakland Center
Mon 10:36:43 AM 38.8264 -116.2917 79° East 476 548 41,000  Level Oakland Center
Mon 10:37:04 AM 38.8308 -116.2583 80° East 474 545 41,000  Level Salt Lake Center
Mon 10:38:05 AM 38.8542 -116.0894 80° East 479 551 41,000  Level Salt Lake Center
Mon 10:39:07 AM 38.8781 -115.9214 80° East 479 551 41,000  Level Salt Lake Center
Mon 10:40:08 AM 38.9067 -115.7172 80° East 483 556 41,000  Level Salt Lake Center
Mon 10:41:10 AM 38.9306 -115.5469 80° East 484 557 41,000  Level Salt Lake Center
Mon 10:42:11 AM 38.9519 -115.3856 80° East 483 556 41,000  Level Salt Lake Center
Mon 10:43:12 AM 38.9764 -115.2119 80° East 493 567 41,000  Level Salt Lake Center
Mon 10:44:14 AM 38.9983 -115.0400 81° East 490 564 41,000  Level Salt Lake Center
Mon 10:45:15 AM 39.0214 -114.8675 80° East 491 565 41,000  Level Salt Lake Center
Mon 10:46:17 AM 39.0481 -114.6594 81° East 490 564 41,000  Level Salt Lake Center
Mon 10:47:18 AM 39.0706 -114.4875 80° East 492 566 41,000  Level Salt Lake Center
Mon 10:48:20 AM 39.0917 -114.3131 81° East 492 566 41,000  Level Salt Lake Center
Mon 10:49:21 AM 39.1139 -114.1386 81° East 494 568 41,000 49 Level Salt Lake Center
Mon 10:50:23 AM 39.1358 -113.9628 81° East 496 571 41,100  Climbing Salt Lake Center
Mon 10:51:24 AM 39.1569 -113.7889 81° East 493 567 41,000 -49 Descending Salt Lake Center
Mon 10:52:26 AM 39.1764 -113.6153 82° East 491 565 41,000  Level Salt Lake Center
Mon 10:53:27 AM 39.1964 -113.4403 82° East 493 567 41,000  Level Salt Lake Center
Mon 10:54:28 AM 39.2178 -113.2667 81° East 491 565 41,000  Level Salt Lake Center
Mon 10:55:30 AM 39.2417 -113.0586 82° East 489 563 41,000  Level Salt Lake Center
Mon 10:56:32 AM 39.2617 -112.8844 82° East 490 564 41,000  Level Salt Lake Center
Mon 10:57:33 AM 39.2803 -112.7089 82° East 493 567 41,000  Level Salt Lake Center
Mon 10:58:35 AM 39.2981 -112.5517 82° East 491 565 41,000  Level Salt Lake Center
Mon 10:59:36 AM 39.3264 -112.3800 78° East 491 565 41,000  Level Salt Lake Center
Mon 11:00:38 AM 39.3656 -112.1783 76° East 487 560 41,000  Level Salt Lake Center
Mon 11:01:39 AM 39.3964 -112.0081 77° East 489 563 41,000  Level Salt Lake Center
Mon 11:02:41 AM 39.4269 -111.8364 77° East 491 565 41,000  Level Salt Lake Center
Mon 11:03:43 AM 39.4578 -111.6661 77° East 491 565 41,000  Level Salt Lake Center
Mon 11:04:44 AM 39.4889 -111.4969 77° East 487 560 41,000  Level Salt Lake Center
Mon 11:05:46 AM 39.5183 -111.3283 77° East 482 555 41,000  Level Salt Lake Center
Mon 11:06:47 AM 39.5492 -111.1564 77° East 475 547 41,000  Level Salt Lake Center
Mon 11:07:49 AM 39.5803 -110.9728 78° East 469 540 41,000  Level Salt Lake Center
Mon 11:08:51 AM 39.6086 -110.8153 77° East 468 539 41,000  Level Salt Lake Center
Mon 11:09:53 AM 39.6408 -110.6300 77° East 470 541 41,000  Level Salt Lake Center
Mon 11:10:54 AM 39.6681 -110.4728 77° East 468 539 41,000  Level Salt Lake Center
Mon 11:11:56 AM 39.6986 -110.2881 78° East 469 540 41,000  Level Salt Lake Center
Mon 11:12:58 AM 39.7242 -110.1272 78° East 474 545 41,000  Level Salt Lake Center
Mon 11:14:00 AM 39.7344 -109.9325 86° East 484 557 41,000  Level Salt Lake Center
Mon 11:15:02 AM 39.7436 -109.7614 86° East 493 567 41,000  Level Salt Lake Center
Mon 11:15:49 AM 39.7511 -109.6181 86° East 495 570 41,000  Level Denver Center
Mon 11:16:51 AM 39.7592 -109.4442 86° East 501 577 41,000  Level Denver Center
Mon 11:17:53 AM 39.7692 -109.2439 86° East 498 573 41,000  Level Denver Center
Mon 11:18:55 AM 39.7778 -109.0589 86° East 497 572 41,000  Level Denver Center
Mon 11:19:57 AM 39.7861 -108.8675 87° East 499 574 41,000  Level Denver Center
Mon 11:20:59 AM 39.7939 -108.6919 87° East 500 575 41,000  Level Denver Center
Mon 11:22:01 AM 39.8011 -108.5172 87° East 501 577 41,000  Level Denver Center
Mon 11:23:03 AM 39.8092 -108.3136 87° East 502 578 41,000  Level Denver Center
Mon 11:24:05 AM 39.8164 -108.1383 87° East 504 580 41,000  Level Denver Center
Mon 11:25:07 AM 39.8236 -107.9361 87° East 502 578 41,000  Level Denver Center
Mon 11:26:09 AM 39.8289 -107.7606 88° East 507 583 41,000  Level Denver Center
Mon 11:27:24 AM 39.8369 -107.5236 87° East 513 590 41,000  Level Denver Center
Mon 11:28:26 AM 39.8428 -107.3483 87° East 509 586 41,000  Level Denver Center
Mon 11:29:28 AM 39.8486 -107.1583 88° East 507 583 41,000  Level Denver Center
Mon 11:30:30 AM 39.8528 -106.9664 88° East 510 587 41,000  Level Denver Center
Mon 11:31:32 AM 39.8589 -106.7856 87° East 511 588 41,000  Level Denver Center
Mon 11:32:34 AM 39.8644 -106.5983 88° East 514 592 41,000  Level Denver Center
Mon 11:33:36 AM 39.8678 -106.4025 89° East 511 588 41,000  Level Denver Center
Mon 11:34:38 AM 39.8739 -106.1842 88° East 514 592 41,000  Level Denver Center
Mon 11:35:40 AM 39.8786 -105.9981 88° East 512 589 41,000  Level Denver Center
Mon 11:36:42 AM 39.8803 -105.8114 89° East 513 590 41,000  Level Denver Center
Mon 11:37:44 AM 39.8839 -105.6250 88° East 505 581 41,000  Level Denver Center
Mon 11:38:46 AM 39.8867 -105.4383 89° East 507 583 41,000  Level Denver Center
Mon 11:39:48 AM 39.8883 -105.2528 89° East 505 581 41,000  Level Denver Center
Mon 11:40:50 AM 39.8903 -105.0700 89° East 498 573 41,000  Level Denver Center
Mon 11:41:52 AM 39.8922 -104.8872 89° East 494 568 41,000  Level Denver Center
Mon 11:42:54 AM 39.8936 -104.6750 89° East 492 566 41,000  Level Denver Center
Mon 11:43:56 AM 39.9078 -104.4875 84° East 514 592 41,000  Level Denver Center
Mon 11:44:58 AM 39.9244 -104.3067 83° East 493 567 41,000  Level Denver Center
Mon 11:46:00 AM 39.9394 -104.1253 84° East 497 572 41,000  Level Denver Center
Mon 11:47:02 AM 39.9558 -103.9503 83° East 480 552 41,000  Level Denver Center
Mon 11:48:04 AM 39.9708 -103.7686 84° East 484 557 41,000  Level Denver Center
Mon 11:49:06 AM 39.9872 -103.5950 83° East 478 550 41,000  Level Denver Center
Mon 11:50:09 AM 40.0031 -103.4142 83° East 495 570 41,000  Level Denver Center
Mon 11:51:11 AM 40.0175 -103.2347 84° East 495 570 41,000  Level Denver Center
Mon 11:52:13 AM 40.0342 -103.0225 84° East 497 572 41,000  Level Denver Center
Mon 11:53:15 AM 40.0489 -102.8408 84° East 499 574 41,000  Level Denver Center
Mon 11:54:17 AM 40.0631 -102.6514 84° East 499 574 41,000  Level Denver Center
Mon 11:55:19 AM 40.0764 -102.4792 84° East 500 575 41,000  Level Denver Center
Mon 11:56:21 AM 40.0914 -102.2789 84° East 501 577 41,000  Level Denver Center
Mon 11:57:23 AM 40.1042 -102.1075 84° East 497 572 41,000  Level Denver Center
Mon 11:58:25 AM 40.1181 -101.9053 85° East 501 577 41,000  Level Denver Center
Mon 11:59:27 AM 40.1311 -101.7328 84° East 501 577 41,000  Level Denver Center
Mon 12:00:31 PM 40.1439 -101.5322 85° East 498 573 41,000  Level Denver Center
Mon 12:01:33 PM 40.1556 -101.3611 85° East 496 571 41,000  Level Denver Center
Mon 12:02:35 PM 40.1681 -101.1622 85° East 494 568 41,000  Level Denver Center
Mon 12:03:37 PM 40.1792 -100.9933 85° East 490 564 41,000  Level Denver Center
Mon 12:04:39 PM 40.1911 -100.7942 85° East 494 568 41,000  Level Denver Center
Mon 12:05:41 PM 40.2017 -100.6244 85° East 493 567 41,000  Level Denver Center
Mon 12:06:43 PM 40.2058 -100.4256 88° East 493 567 41,000  Level Denver Center
Mon 12:07:45 PM 40.2094 -100.2547 88° East 493 567 41,000  Level Denver Center
Mon 12:08:47 PM 40.2117 -100.0544 89° East 495 570 41,000  Level Denver Center
Mon 12:09:49 PM 40.2139 -99.8847 89° East 492 566 41,000  Level Denver Center
Mon 12:10:51 PM 40.2158 -99.6819 89° East 497 572 41,000  Level Denver Center
Mon 12:11:53 PM 40.2183 -99.5053 89° East 490 564 41,000  Level Denver Center
Mon 12:12:55 PM 40.2189 -99.3278 90° East 490 564 41,000  Level Denver Center
Mon 12:13:57 PM 40.2208 -99.1500 89° East 490 564 41,000  Level Denver Center
Mon 12:15:00 PM 40.2222 -98.9692 89° East 495 570 41,000  Level Denver Center
Mon 12:15:32 PM 40.2219 -98.8600 90° East 498 573 41,000  Level Minneapolis Center
Mon 12:16:33 PM 40.2217 -98.6761 90° East 504 580 41,000  Level Minneapolis Center
Mon 12:17:35 PM 40.2231 -98.4925 89° East 507 583 41,000  Level Minneapolis Center
Mon 12:18:36 PM 40.2217 -98.3081 91° East 508 585 41,000  Level Minneapolis Center
Mon 12:19:37 PM 40.2217 -98.1239 90° East 509 586 41,000  Level Minneapolis Center
Mon 12:20:39 PM 40.2211 -97.9006 90° East 512 589 41,000  Level Minneapolis Center
Mon 12:21:40 PM 40.2192 -97.7133 91° East 515 593 41,000  Level Minneapolis Center
Mon 12:22:42 PM 40.2186 -97.5283 90° East 513 590 41,000  Level Minneapolis Center
Mon 12:23:43 PM 40.2169 -97.3444 91° East 509 586 41,000  Level Minneapolis Center
Mon 12:24:45 PM 40.2139 -97.1519 91° East 503 579 41,000  Level Minneapolis Center
Mon 12:25:46 PM 40.2125 -96.9692 91° East 503 579 41,000  Level Minneapolis Center
Mon 12:26:48 PM 40.2089 -96.7872 91° East 503 579 41,000  Level Minneapolis Center
Mon 12:27:49 PM 40.2069 -96.6053 91° East 504 580 41,000  Level Minneapolis Center
Mon 12:28:51 PM 40.2042 -96.4211 91° East 506 582 41,000  Level Minneapolis Center
Mon 12:29:52 PM 40.2011 -96.2403 91° East 502 578 41,000  Level Minneapolis Center
Mon 12:30:54 PM 40.2331 -96.0289 79° East 493 567 41,000  Level Minneapolis Center
Mon 12:31:55 PM 40.2650 -95.8550 76° East 493 567 41,000  Level Minneapolis Center
Mon 12:32:57 PM 40.2975 -95.6817 76° East 493 567 41,000  Level Minneapolis Center
Mon 12:33:59 PM 40.3289 -95.5075 77° East 494 568 41,000  Level Minneapolis Center
Mon 12:35:00 PM 40.3572 -95.3425 77° East  Level FlightAware Approximate
Mon 12:35:00 PM 40.3603 -95.3328 77° East 494 568 41,000  Level Minneapolis Center
Mon 12:36:02 PM 40.3917 -95.1583 77° East 494 568 41,000  Level Minneapolis Center
Mon 12:37:04 PM 40.4222 -94.9847 77° East 493 567 41,000  Level Minneapolis Center
Mon 12:38:05 PM 40.4603 -94.7756 76° East 493 567 41,000  Level Minneapolis Center
Mon 12:39:07 PM 40.4897 -94.6014 77° East 492 566 41,000  Level Minneapolis Center
Mon 12:40:09 PM 40.5189 -94.4289 77° East 494 568 41,000  Level Minneapolis Center
Mon 12:41:11 PM 40.5503 -94.2569 76° East 489 563 41,000  Level Minneapolis Center
Mon 12:42:12 PM 40.5764 -94.0861 79° East 484 557 41,000  Level Minneapolis Center
Mon 12:43:14 PM 40.5989 -93.9489 78° East 484 557 41,000  Level Minneapolis Center
Mon 12:44:16 PM 40.6297 -93.7394 79° East 487 560 41,000  Level Minneapolis Center
Mon 12:45:17 PM 40.6586 -93.5311 80° East 486 559 41,000 -341 Level Minneapolis Center
Mon 12:46:19 PM 40.6864 -93.3553 78° East 489 563 40,300 -1,065 Descending Minneapolis Center
Mon 12:47:21 PM 40.7103 -93.1806 80° East 489 563 38,800 -1,452 Descending Minneapolis Center
Mon 12:48:23 PM 40.7356 -93.0067 79° East 487 560 37,300 -1,452 Descending Minneapolis Center
Mon 12:49:25 PM 40.7589 -92.8403 79° East 472 543 35,800 -1,537 Descending Minneapolis Center
Mon 12:49:45 PM 40.7669 -92.7758 81° East 459 528 35,200 -593 Descending Chicago Center
Mon 12:50:46 PM 40.7903 -92.6108 79° East 456 525 35,000 -293 Descending Chicago Center
Mon 12:51:48 PM 40.8131 -92.4442 80° East 461 531 34,600 -677 Descending Chicago Center
Mon 12:52:50 PM 40.8358 -92.2706 80° East 476 548 33,600 -774 Descending Chicago Center
Mon 12:53:52 PM 40.8583 -92.1000 80° East 474 545 33,000 -484 Descending Chicago Center
Mon 12:54:54 PM 40.8856 -91.8958 80° East 474 545 32,600 -677 Descending Chicago Center
Mon 12:55:56 PM 40.9069 -91.7256 81° East 472 543 31,600 -780 Descending Chicago Center
Mon 12:56:57 PM 40.9281 -91.5608 80° East 459 528 31,000 -293 Descending Chicago Center
Mon 12:57:59 PM 40.9492 -91.3964 80° East 456 525 31,000  Level Chicago Center
Mon 12:59:01 PM 40.9725 -91.2044 81° East 462 532 31,000 -919 Level Chicago Center
Mon 01:00:03 PM 40.9939 -91.0331 81° East 471 542 29,100 -2,129 Descending Chicago Center
Mon 01:01:05 PM 41.0144 -90.8600 81° East 475 547 26,600 -2,390 Descending Chicago Center
Mon 01:02:06 PM 41.0350 -90.6947 81° East 455 524 24,200 -1,854 Descending Chicago Center
Mon 01:03:08 PM 41.0533 -90.5367 81° East 436 502 22,800 -1,306 Descending Chicago Center
Mon 01:04:10 PM 41.0717 -90.3758 81° East 439 505 21,500 -1,258 Descending Chicago Center
Mon 01:05:12 PM 41.0903 -90.2133 81° East 442 509 20,200 -1,306 Descending Chicago Center
Mon 01:06:14 PM 41.1089 -90.0544 81° East 435 501 18,800 -1,403 Descending Chicago Center
Mon 01:07:16 PM 41.1292 -89.8700 82° East 420 483 17,300 -1,268 Descending Chicago Center
Mon 01:08:17 PM 41.1442 -89.7342 82° East 378 435 16,200 -1,073 Descending Chicago Center
Mon 01:09:19 PM 41.1600 -89.5928 81° East 383 441 15,100 -919 Descending Chicago Center
Mon 01:10:21 PM 41.1692 -89.4547 85° East 377 434 14,300 -726 Descending Chicago Center
Mon 01:11:23 PM 41.1781 -89.3203 85° East 367 422 13,600 -774 Descending Chicago Center
Mon 01:12:25 PM 41.1867 -89.1892 85° East 364 419 12,700 -1,500 Descending Chicago Center
Mon 01:13:27 PM 41.2231 -89.0714 68° East 349 402 10,500 -1,366 Descending Chicago Center
Mon 01:14:28 PM 41.2781 -88.9433 60° Northeast 327 376 9,900 -927 Descending Chicago Center
Mon 01:15:30 PM 41.3181 -88.8500 60° Northeast 295 339 8,600 -1,226 Descending Chicago Center
Mon 01:17:34 PM 41.3947 -88.6739 60° Northeast 275 316 6,100 -843 Descending Chicago Center
Mon 01:18:35 PM 41.4308 -88.5889 60° Northeast 267 307 6,000 -49 Descending Chicago Center
Mon 01:19:37 PM 41.4633 -88.5006 64° Northeast 266 306 6,000  Level Chicago Center
Mon 01:20:39 PM 41.4903 -88.3867 72° East 267 307 6,000  Level Chicago Center
Mon 01:21:41 PM 41.5142 -88.2931 71° East 268 308 6,000  Level Chicago Center
Mon 01:22:43 PM 41.5381 -88.1983 71° East 267 307 6,000 -435 Level Chicago Center
Mon 01:23:45 PM 41.5625 -88.1044 71° East 265 305 5,100 -484 Descending Chicago Center
Mon 01:24:47 PM 41.5772 -88.0092 78° East 262 302 5,000 -49 Descending Chicago Center
Mon 01:25:48 PM 41.5861 -87.9122 83° East 262 302 5,000 -146 Level Chicago Center
Mon 01:26:50 PM 41.5978 -87.8161 81° East 262 302 4,700 -435 Descending Chicago Center
Mon 01:27:52 PM 41.6261 -87.7461 62° Northeast 236 272 4,100 -785 Descending Chicago Center
Mon 01:28:37 PM 41.6500 -87.7000 55° Northeast 174 200 3,300 -686 Descending Chicago TRACON
Mon 01:29:37 PM 41.7000 -87.6667 26° Northeast 183 211 2,900 -600 Descending Chicago TRACON
Mon 01:30:37 PM 41.7333 -87.6833 340° North 170 196 2,100 -397 Descending Chicago TRACON
Mon 01:31:38 PM 41.7833 -87.6833 360° North 166 191 2,100 -198 Level Chicago TRACON
Mon 01:32:38 PM 41.8167 -87.6833 360° North 158 182 1,700 -500 Descending Chicago TRACON
Mon 01:33:38 PM 41.8000 -87.7333 246° West 128 147 1,100 -600 Descending Chicago TRACON

Login

Don't have an account? Register now (free) for customized features, flight alerts, and more!